Time;durP1;ratioP1;P1;durP2;ratioP2;P2;SDS_P1;SDS_P2;PMS_P1;PMS_P2;Temp;Humidity;BMP_temperature;BMP_pressure;BME280_temperature;BME280_humidity;BME280_pressure;Samples;Min_cycle;Max_cycle;Signal;HPM_P1;HPM_P2
2023/01/02 00:01:12;;;;;;;10.13;3.40;;;;;;;16.54;63.18;99502.72;5066781;28;20041;-80
2023/01/02 00:03:38;;;;;;;8.98;3.58;;;;;;;16.53;63.21;99508.03;5072964;28;20082;-80
2023/01/02 00:06:05;;;;;;;8.52;3.10;;;;;;;16.54;63.21;99500.06;5105941;28;20059;-81
2023/01/02 00:08:31;;;;;;;9.95;4.18;;;;;;;16.53;63.20;99503.63;5072161;28;20385;-83
2023/01/02 00:10:56;;;;;;;9.85;3.80;;;;;;;16.51;62.97;99505.47;5073451;28;20604;-81
2023/01/02 00:13:21;;;;;;;10.02;3.78;;;;;;;16.53;62.90;99510.66;5072952;28;20017;-81
2023/01/02 00:15:47;;;;;;;7.15;3.50;;;;;;;16.51;62.93;99506.34;5073219;28;20068;-80
2023/01/02 00:18:12;;;;;;;8.75;3.45;;;;;;;16.53;63.06;99503.63;5071578;28;20024;-79
2023/01/02 00:20:38;;;;;;;11.25;3.53;;;;;;;16.52;63.04;99501.94;5071889;28;20020;-79
2023/01/02 00:23:03;;;;;;;10.00;3.70;;;;;;;16.53;63.08;99501.00;5105890;28;20078;-81
2023/01/02 00:25:29;;;;;;;10.18;3.35;;;;;;;16.52;63.00;99494.03;5071480;28;21221;-81
2023/01/02 00:27:55;;;;;;;11.30;3.83;;;;;;;16.53;62.86;99493.09;5105545;28;20086;-80
2023/01/02 00:30:21;;;;;;;9.77;4.20;;;;;;;16.54;62.81;99481.63;5071887;28;20099;-79
2023/01/02 00:32:46;;;;;;;9.48;3.15;;;;;;;16.50;62.93;99482.69;5072669;28;20501;-82
2023/01/02 00:35:12;;;;;;;10.95;3.83;;;;;;;16.52;62.92;99491.41;5071232;28;20021;-79
2023/01/02 00:37:37;;;;;;;9.05;4.07;;;;;;;16.51;62.62;99479.13;5072934;28;20026;-79
2023/01/02 00:40:03;;;;;;;8.77;3.53;;;;;;;16.52;62.91;99491.41;5072720;28;20081;-81
2023/01/02 00:42:29;;;;;;;10.25;3.83;;;;;;;16.54;62.74;99489.53;5072891;28;20478;-82
2023/01/02 00:44:54;;;;;;;9.50;3.70;;;;;;;16.50;62.62;99487.94;5072912;28;20024;-80
2023/01/02 00:47:20;;;;;;;8.43;3.60;;;;;;;16.50;63.04;99493.22;5072488;28;20091;-79
2023/01/02 00:49:45;;;;;;;12.23;3.97;;;;;;;16.48;62.75;99490.63;5072892;28;20070;-82
2023/01/02 00:52:10;;;;;;;9.07;4.10;;;;;;;16.48;62.80;99479.25;5072728;28;20028;-80
2023/01/02 00:54:36;;;;;;;7.20;2.90;;;;;;;16.44;63.26;99482.94;5105300;28;20092;-81
2023/01/02 00:57:01;;;;;;;7.13;3.08;;;;;;;16.43;62.84;99473.31;5072801;28;20077;-81
2023/01/02 00:59:27;;;;;;;10.95;3.78;;;;;;;16.42;63.00;99471.63;5072481;28;20027;-81
2023/01/02 01:01:52;;;;;;;7.72;3.33;;;;;;;16.44;62.89;99467.13;5066593;28;20045;-80
2023/01/02 01:04:17;;;;;;;8.77;3.35;;;;;;;16.46;62.81;99462.69;5072766;28;20028;-82
2023/01/02 01:06:43;;;;;;;10.27;4.22;;;;;;;16.43;63.17;99449.63;5072433;28;20056;-79
2023/01/02 01:09:08;;;;;;;9.48;3.60;;;;;;;16.45;63.22;99442.50;5075595;28;20032;-82
2023/01/02 01:11:34;;;;;;;11.02;3.80;;;;;;;16.46;62.76;99455.63;5075417;28;20024;-80
2023/01/02 01:13:59;;;;;;;8.82;3.58;;;;;;;16.46;62.60;99454.78;5076499;28;20387;-80
2023/01/02 01:16:25;;;;;;;10.48;4.38;;;;;;;16.48;62.52;99445.03;5075759;28;20519;-80
2023/01/02 01:18:54;;;;;;;11.25;3.88;;;;;;;16.49;62.84;99454.63;5076707;28;20017;-79
2023/01/02 01:21:20;;;;;;;9.32;3.45;;;;;;;16.47;62.70;99448.59;5076468;28;20021;-80
2023/01/02 01:23:50;;;;;;;9.60;3.58;;;;;;;16.45;62.62;99450.41;5076853;28;20520;-82
2023/01/02 01:26:16;;;;;;;9.77;3.60;;;;;;;16.44;63.00;99456.59;5076250;28;20024;-81
2023/01/02 01:28:42;;;;;;;8.20;3.38;;;;;;;16.45;62.61;99460.94;5076439;28;20078;-80
2023/01/02 01:31:10;;;;;;;9.77;3.25;;;;;;;16.45;62.87;99468.84;5075076;28;20028;-79
2023/01/02 01:33:36;;;;;;;10.77;4.00;;;;;;;16.45;62.97;99474.09;5076296;28;20118;-80
2023/01/02 01:36:07;;;;;;;11.50;3.85;;;;;;;16.43;62.84;99481.22;5076436;28;20020;-80
2023/01/02 01:38:33;;;;;;;10.82;3.60;;;;;;;16.44;62.91;99482.94;5076140;28;20028;-80
2023/01/02 01:40:59;;;;;;;9.75;3.88;;;;;;;16.44;62.97;99480.31;5075965;28;20055;-80
2023/01/02 01:43:37;;;;;;;7.47;3.40;;;;;;;16.45;62.88;99492.53;5074779;28;20393;-83
2023/01/02 01:46:05;;;;;;;8.48;4.05;;;;;;;16.44;62.56;99477.66;5076073;28;20409;-81
2023/01/02 01:48:31;;;;;;;9.48;3.75;;;;;;;16.44;62.87;99472.41;5076051;28;20032;-81
2023/01/02 01:50:56;;;;;;;9.60;3.72;;;;;;;16.41;62.72;99475.19;5076037;28;20024;-81
2023/01/02 01:53:23;;;;;;;8.65;3.25;;;;;;;16.42;62.55;99476.88;5074665;28;20039;-80
2023/01/02 01:55:54;;;;;;;7.95;3.42;;;;;;;16.40;62.56;99481.34;5075775;28;20029;-79
2023/01/02 01:58:25;;;;;;;8.88;3.42;;;;;;;16.44;62.80;99482.94;5076033;28;20056;-81
2023/01/02 02:00:50;;;;;;;11.25;3.53;;;;;;;16.45;62.89;99484.66;5072116;28;20117;-78
2023/01/02 02:03:20;;;;;;;8.10;3.65;;;;;;;16.44;62.76;99488.19;5070989;28;20477;-80
2023/01/02 02:05:47;;;;;;;9.50;3.80;;;;;;;16.44;62.76;99482.94;5075790;28;20029;-82
2023/01/02 02:08:19;;;;;;;11.13;3.80;;;;;;;16.41;62.88;99488.34;5075577;28;20510;-79
2023/01/02 02:10:45;;;;;;;12.23;4.50;;;;;;;16.42;62.65;99487.41;5074318;28;20024;-80
2023/01/02 02:13:11;;;;;;;12.60;3.60;;;;;;;16.44;62.85;99482.94;5075553;28;20055;-82
2023/01/02 02:16:01;;;;;;;10.25;3.60;;;;;;;16.44;62.58;99485.56;5075052;28;20032;-82
2023/01/02 02:19:09;;;;;;;9.85;3.08;;;;;;;16.42;62.57;99479.53;5074861;28;20033;-78
2023/01/02 02:21:55;;;;;;;8.95;3.42;;;;;;;16.41;62.87;99467.28;5033486;28;20042;-80
2023/01/02 02:24:39;;;;;;;11.80;3.85;;;;;;;16.44;62.58;99477.66;5033326;28;20044;-79
2023/01/02 02:27:20;;;;;;;8.68;3.65;;;;;;;16.41;62.62;99480.44;5033389;28;20407;-80
2023/01/02 02:30:03;;;;;;;11.60;4.88;;;;;;;16.39;62.72;99469.97;5016126;28;20025;-80
2023/01/02 02:32:44;;;;;;;11.48;3.88;;;;;;;16.38;62.80;99482.25;5033200;28;20049;-79
2023/01/02 02:35:33;;;;;;;11.23;3.70;;;;;;;16.41;62.42;99480.44;5016930;28;20076;-81
2023/01/02 02:38:08;;;;;;;9.50;3.72;;;;;;;16.41;62.51;99483.09;5016301;28;20034;-79
2023/01/02 02:40:42;;;;;;;7.78;3.92;;;;;;;16.38;62.75;99484.06;5032961;28;20427;-80
2023/01/02 02:43:26;;;;;;;10.00;4.00;;;;;;;16.42;62.85;99471.63;5032771;28;20038;-81
2023/01/02 02:45:54;;;;;;;7.00;3.30;;;;;;;16.42;62.45;99469.81;5033162;28;20123;-81
2023/01/02 02:48:30;;;;;;;8.05;3.55;;;;;;;16.43;62.37;99479.47;5032776;28;20030;-80
2023/01/02 02:50:59;;;;;;;9.20;3.80;;;;;;;16.43;62.42;99486.50;5032857;28;20045;-79
2023/01/02 02:53:41;;;;;;;8.38;3.53;;;;;;;16.41;62.63;99483.91;5032629;28;20427;-79
2023/01/02 02:56:10;;;;;;;8.65;3.42;;;;;;;16.43;62.75;99491.75;5035489;28;20021;-81
2023/01/02 02:58:37;;;;;;;11.23;4.57;;;;;;;16.44;62.37;99488.19;5074387;28;20017;-82
2023/01/02 03:01:06;;;;;;;7.95;3.45;;;;;;;16.46;62.61;99491.66;5074443;28;20056;-80
2023/01/02 03:03:31;;;;;;;8.80;3.15;;;;;;;16.43;62.27;99487.38;5074334;28;20105;-82
2023/01/02 03:06:17;;;;;;;8.05;3.28;;;;;;;16.43;62.26;99481.22;5074511;28;20052;-79
2023/01/02 03:08:57;;;;;;;10.20;3.92;;;;;;;16.44;62.54;99482.94;5070528;28;20036;-81
2023/01/02 03:11:34;;;;;;;9.60;3.78;;;;;;;16.42;62.13;99490.06;5074445;28;20037;-81
2023/01/02 03:14:14;;;;;;;10.25;4.03;;;;;;;16.40;62.58;99476.94;5073574;28;20032;-80
2023/01/02 03:16:42;;;;;;;8.10;3.03;;;;;;;16.43;62.63;99473.31;5073119;28;20032;-79
2023/01/02 03:19:13;;;;;;;11.90;3.90;;;;;;;16.43;62.62;99470.69;5074145;28;20031;-80
2023/01/02 03:21:48;;;;;;;7.20;3.13;;;;;;;16.40;62.33;99478.72;5074178;28;20088;-79
2023/01/02 03:24:18;;;;;;;8.95;3.70;;;;;;;16.40;62.43;99479.56;5074157;28;20025;-81
2023/01/02 03:26:48;;;;;;;10.65;3.83;;;;;;;16.36;62.68;99478.84;5072536;28;20025;-81
2023/01/02 03:29:25;;;;;;;13.63;4.00;;;;;;;16.34;62.54;99478.06;5074024;28;20166;-80
2023/01/02 03:31:54;;;;;;;7.93;3.47;;;;;;;16.38;62.33;99455.94;5072015;28;20028;-82
2023/01/02 03:34:24;;;;;;;8.90;3.03;;;;;;;16.41;62.41;99469.91;5074044;28;20052;-80
2023/01/02 03:36:59;;;;;;;9.70;4.00;;;;;;;16.40;62.48;99476.06;5072518;28;20028;-81
2023/01/02 03:39:28;;;;;;;8.27;3.47;;;;;;;16.42;62.35;99469.00;5072566;28;20029;-80
2023/01/02 03:42:06;;;;;;;9.65;3.10;;;;;;;16.41;62.27;99473.38;5073471;28;20043;-79
2023/01/02 03:45:15;;;;;;;7.90;3.30;;;;;;;16.43;62.69;99481.22;5072894;28;20551;-82
2023/01/02 03:47:56;;;;;;;7.43;3.53;;;;;;;16.40;62.58;99484.84;5072966;28;20461;-80
2023/01/02 03:50:33;;;;;;;9.82;3.65;;;;;;;16.43;62.48;99487.38;5072858;28;20028;-80
2023/01/02 03:52:59;;;;;;;6.65;3.25;;;;;;;16.47;62.45;99488.09;5073623;28;20021;-82
2023/01/02 03:55:28;;;;;;;7.78;3.20;;;;;;;16.46;62.45;99494.28;5073476;28;20023;-79
2023/01/02 03:58:06;;;;;;;8.63;4.15;;;;;;;16.47;62.62;99488.09;5073348;28;20028;-79
2023/01/02 04:00:50;;;;;;;8.18;3.72;;;;;;;16.44;62.19;99496.97;5073499;28;20028;-80
2023/01/02 04:03:35;;;;;;;7.75;3.58;;;;;;;16.45;62.50;99500.44;5069962;28;20111;-80
2023/01/02 04:06:11;;;;;;;9.27;4.10;;;;;;;16.46;62.28;99499.56;5072088;28;20056;-82
2023/01/02 04:09:00;;;;;;;8.18;3.42;;;;;;;16.46;62.14;99508.28;5073313;28;20052;-81
2023/01/02 04:11:29;;;;;;;9.85;3.70;;;;;;;16.50;62.26;99514.28;5072032;28;20017;-80
2023/01/02 04:13:59;;;;;;;7.13;3.17;;;;;;;16.47;62.52;99524.97;5071899;28;20504;-83
2023/01/02 04:16:28;;;;;;;8.45;3.70;;;;;;;16.49;62.56;99538.91;5073249;28;20036;-82
2023/01/02 04:19:00;;;;;;;8.98;3.63;;;;;;;16.49;62.56;99538.91;5073340;28;20024;-79
2023/01/02 04:21:30;;;;;;;10.10;3.70;;;;;;;16.50;62.21;99543.25;5073349;28;20130;-80
2023/01/02 04:24:18;;;;;;;7.32;3.35;;;;;;;16.49;62.50;99560.00;5072011;28;20021;-82
2023/01/02 04:26:54;;;;;;;9.18;3.90;;;;;;;16.50;62.19;99553.78;5073287;28;20020;-80
2023/01/02 04:29:20;;;;;;;;;;;;;;;16.53;62.51;99561.59;5072512;28;20036;-82
2023/01/02 04:31:52;;;;;;;6.93;3.50;;;;;;;16.54;62.36;99555.41;5071883;28;20027;-82
2023/01/02 04:34:20;;;;;;;7.18;4.18;;;;;;;16.53;62.23;99556.31;5073231;28;20090;-82
2023/01/02 04:36:46;;;;;;;8.20;3.72;;;;;;;16.55;62.09;99558.91;5073079;28;20036;-81
2023/01/02 04:39:11;;;;;;;7.70;3.60;;;;;;;16.53;62.11;99558.97;5071497;28;20419;-79
2023/01/02 04:41:38;;;;;;;8.10;3.90;;;;;;;16.54;61.99;99565.94;5072699;28;20032;-82
2023/01/02 04:44:04;;;;;;;8.50;3.55;;;;;;;16.53;62.31;99566.84;5072813;28;20398;-80
2023/01/02 04:46:29;;;;;;;9.30;3.67;;;;;;;16.53;62.45;99555.44;5072969;28;20115;-81
2023/01/02 04:48:55;;;;;;;8.77;4.07;;;;;;;16.54;62.29;99562.44;5071684;28;20486;-79
2023/01/02 04:51:22;;;;;;;8.63;3.63;;;;;;;16.49;62.00;99552.09;5072961;28;20126;-82
2023/01/02 04:53:51;;;;;;;8.57;3.97;;;;;;;16.49;62.37;99554.72;5072698;28;20048;-80
2023/01/02 04:56:18;;;;;;;6.78;3.10;;;;;;;16.51;62.38;99563.41;5072718;28;20565;-81
2023/01/02 04:58:44;;;;;;;8.35;3.72;;;;;;;16.50;62.31;99567.84;5072934;28;20043;-80
2023/01/02 05:01:12;;;;;;;7.32;3.55;;;;;;;16.50;62.33;99586.28;5072628;28;20021;-81
2023/01/02 05:03:42;;;;;;;6.32;3.45;;;;;;;16.53;62.48;99590.56;5072649;28;20513;-82
2023/01/02 05:06:08;;;;;;;8.18;3.83;;;;;;;16.49;62.25;99579.31;5072754;28;20036;-82
2023/01/02 05:08:34;;;;;;;7.18;4.10;;;;;;;16.49;62.39;99576.66;5072185;28;20040;-79
2023/01/02 05:11:10;;;;;;;7.93;3.55;;;;;;;16.49;62.44;99579.31;5071236;28;20039;-79
2023/01/02 05:13:35;;;;;;;9.15;3.63;;;;;;;16.46;62.50;99582.03;5071318;28;20029;-82
2023/01/02 05:16:02;;;;;;;8.60;3.63;;;;;;;16.47;62.49;99582.91;5071301;28;20047;-82
2023/01/02 05:18:28;;;;;;;8.30;3.95;;;;;;;16.50;62.28;99585.41;5072767;28;20017;-82
2023/01/02 05:23:47;;;;;;;9.15;3.75;;;;;;;16.47;62.21;99594.28;5071621;28;20489;-81
2023/01/02 05:24:00;;;;;;;8.05;3.33;;;;;;;16.50;62.33;99598.59;5072275;28;20037;-82
2023/01/02 05:26:26;;;;;;;6.50;3.95;;;;;;;16.51;62.16;99602.91;5071037;28;20036;-79
2023/01/02 05:28:53;;;;;;;9.00;3.95;;;;;;;16.53;62.24;99614.28;5072637;28;20086;-81
2023/01/02 05:31:19;;;;;;;6.70;3.45;;;;;;;16.53;62.22;99613.41;5071423;28;20032;-80
2023/01/02 05:33:50;;;;;;;9.93;4.13;;;;;;;16.53;62.48;99616.03;5071116;28;20025;-83
2023/01/02 05:36:15;;;;;;;8.68;3.92;;;;;;;16.51;62.19;99618.72;5072598;28;20040;-82
2023/01/02 05:38:40;;;;;;;8.60;4.03;;;;;;;16.51;62.40;99618.72;5072209;28;20549;-79
2023/01/02 05:41:06;;;;;;;7.78;3.63;;;;;;;16.54;62.17;99626.53;5072629;28;20025;-84
2023/01/02 05:43:34;;;;;;;7.45;3.83;;;;;;;16.55;62.47;99624.75;5072315;28;20347;-80
2023/01/02 05:46:16;;;;;;;8.07;3.90;;;;;;;16.56;62.22;99629.94;5071518;28;20032;-79
2023/01/02 05:48:42;;;;;;;7.57;3.90;;;;;;;16.55;62.28;99635.31;5072098;28;20024;-81
2023/01/02 05:51:10;;;;;;;9.02;3.63;;;;;;;16.56;62.22;99639.66;5071986;28;20111;-80
2023/01/02 05:53:37;;;;;;;6.97;3.17;;;;;;;16.54;62.35;99655.50;5072326;28;20026;-80
2023/01/02 05:56:08;;;;;;;8.60;4.05;;;;;;;16.52;62.40;99644.19;5075926;28;20044;-83
2023/01/02 05:58:36;;;;;;;8.07;3.55;;;;;;;16.55;62.31;99657.22;5076014;28;20035;-82
2023/01/02 06:01:24;;;;;;;7.57;3.65;;;;;;;16.54;62.20;99663.41;5075684;28;20021;-81
2023/01/02 06:04:00;;;;;;;8.02;3.80;;;;;;;16.54;62.44;99663.41;5054615;28;20029;-81
2023/01/02 06:06:33;;;;;;;6.18;3.53;;;;;;;16.54;62.14;99658.13;5055211;28;20035;-81
2023/01/02 06:08:59;;;;;;;9.65;3.70;;;;;;;16.54;62.04;99652.88;5055790;28;20495;-81
2023/01/02 06:11:25;;;;;;;7.82;3.55;;;;;;;16.55;62.03;99654.56;5055722;28;20040;-81
2023/01/02 06:13:51;;;;;;;8.18;3.63;;;;;;;16.57;62.36;99652.72;5054431;28;20033;-81
2023/01/02 06:16:16;;;;;;;7.65;3.97;;;;;;;16.56;61.98;99651.03;5055714;28;20132;-80
2023/01/02 06:18:42;;;;;;;7.30;3.47;;;;;;;16.56;62.21;99655.44;5055402;28;20029;-82
2023/01/02 06:21:10;;;;;;;9.32;3.50;;;;;;;16.54;62.06;99658.13;5054936;28;20083;-80
2023/01/02 06:23:37;;;;;;;9.10;3.95;;;;;;;16.57;62.25;99667.69;5055513;28;20061;-80
2023/01/02 06:26:07;;;;;;;8.98;4.05;;;;;;;16.57;61.97;99668.53;5055567;28;20021;-81
2023/01/02 06:28:33;;;;;;;7.70;4.22;;;;;;;16.57;62.36;99673.81;5070779;28;20025;-80
2023/01/02 06:31:07;;;;;;;7.10;3.40;;;;;;;16.56;62.43;99676.53;5055590;28;20541;-82
2023/01/02 06:33:33;;;;;;;6.82;3.78;;;;;;;16.56;62.09;99681.78;5053986;28;20050;-82
2023/01/02 06:36:01;;;;;;;9.25;3.55;;;;;;;16.56;62.22;99693.16;5053906;28;20029;-79
2023/01/02 06:38:27;;;;;;;6.30;3.85;;;;;;;16.57;62.38;99704.56;5055464;28;20025;-82
2023/01/02 06:40:57;;;;;;;7.25;3.80;;;;;;;16.56;62.08;99700.22;5055124;28;20509;-81
2023/01/02 06:43:23;;;;;;;8.80;4.07;;;;;;;16.57;62.26;99705.41;5055201;28;20033;-82
2023/01/02 06:45:49;;;;;;;8.02;3.72;;;;;;;16.58;62.26;99703.66;5055312;28;20126;-82
2023/01/02 06:48:15;;;;;;;8.85;3.80;;;;;;;16.57;62.26;99713.31;5055071;28;20033;-81
2023/01/02 06:50:42;;;;;;;9.50;3.90;;;;;;;16.56;62.10;99722.16;5054780;28;20039;-80
2023/01/02 06:53:07;;;;;;;7.13;3.15;;;;;;;16.55;62.42;99717.81;5055297;28;20522;-81
2023/01/02 06:55:33;;;;;;;10.35;3.70;;;;;;;16.54;62.02;99726.63;5054738;28;20029;-83
2023/01/02 06:57:58;;;;;;;7.65;4.43;;;;;;;16.56;62.16;99724.78;5054746;28;20029;-82
2023/01/02 07:00:24;;;;;;;6.63;3.95;;;;;;;16.55;62.23;99730.97;5054802;28;20116;-80
2023/01/02 07:02:50;;;;;;;11.43;3.78;;;;;;;16.55;62.24;99735.41;5072593;28;20399;-82
2023/01/02 07:05:15;;;;;;;6.95;4.25;;;;;;;16.58;62.16;99749.31;5072946;28;20029;-81
2023/01/02 07:07:40;;;;;;;8.75;4.70;;;;;;;16.57;62.18;99760.75;5074553;28;20048;-81
2023/01/02 07:10:06;;;;;;;8.35;4.00;;;;;;;16.56;62.30;99769.56;5074573;28;20035;-83
2023/01/02 07:12:36;;;;;;;6.60;3.78;;;;;;;16.56;62.13;99771.38;5074626;28;20489;-82
2023/01/02 07:15:03;;;;;;;7.78;3.85;;;;;;;16.56;62.13;99774.84;5074391;28;20024;-80
2023/01/02 07:17:30;;;;;;;7.85;3.50;;;;;;;16.57;62.22;99796.78;5074119;28;20035;-80
2023/01/02 07:19:55;;;;;;;6.53;3.60;;;;;;;16.56;62.19;99803.81;5074106;28;20024;-81
2023/01/02 07:22:20;;;;;;;9.02;3.83;;;;;;;16.57;62.09;99797.63;5074370;28;20043;-82
2023/01/02 07:24:46;;;;;;;8.07;4.13;;;;;;;16.55;62.32;99810.00;5074436;28;20029;-82
2023/01/02 07:27:11;;;;;;;6.28;3.72;;;;;;;16.55;62.27;99820.53;5074156;28;20032;-81
2023/01/02 07:29:37;;;;;;;6.90;4.03;;;;;;;16.57;62.12;99828.41;5074036;28;20032;-79
2023/01/02 07:32:02;;;;;;;6.88;3.75;;;;;;;16.58;62.26;99833.63;5074352;28;20032;-80
2023/01/02 07:34:28;;;;;;;7.50;3.75;;;;;;;16.55;62.45;99833.72;5072681;28;20028;-82
2023/01/02 07:36:53;;;;;;;7.35;3.72;;;;;;;16.55;62.13;99839.00;5074349;28;20051;-79
2023/01/02 07:39:18;;;;;;;6.22;4.40;;;;;;;16.57;62.23;99852.97;5073670;28;20414;-83
2023/01/02 07:41:44;;;;;;;10.00;3.85;;;;;;;16.57;62.11;99868.75;5073702;28;20028;-82
2023/01/02 07:44:09;;;;;;;6.70;4.05;;;;;;;16.57;62.38;99884.56;5074055;28;20032;-81
2023/01/02 07:46:35;;;;;;;8.48;4.07;;;;;;;16.58;62.00;99885.44;5074156;28;20032;-80
2023/01/02 07:49:00;;;;;;;6.93;4.20;;;;;;;16.58;62.03;99891.59;5072312;28;20078;-79
2023/01/02 07:51:25;;;;;;;7.22;3.75;;;;;;;16.58;61.97;99898.63;5072430;28;20127;-80
2023/01/02 07:53:51;;;;;;;6.45;3.95;;;;;;;16.57;61.98;99897.75;5073407;28;20032;-80
2023/01/02 07:56:16;;;;;;;5.55;3.40;;;;;;;16.57;62.20;99904.81;5073630;28;20052;-80
2023/01/02 07:58:42;;;;;;;6.18;3.60;;;;;;;16.57;62.26;99918.81;5073852;28;20029;-82
2023/01/02 08:01:09;;;;;;;6.22;3.40;;;;;;;16.58;62.49;99923.19;5072542;28;20024;-80
2023/01/02 08:03:35;;;;;;;7.10;3.50;;;;;;;16.57;62.05;99917.97;5073336;28;20032;-80
2023/01/02 08:06:12;;;;;;;7.65;4.18;;;;;;;16.58;61.95;99917.94;5073545;28;20033;-81
2023/01/02 08:08:38;;;;;;;9.73;4.40;;;;;;;16.60;62.28;99931.03;5072948;28;20422;-80
2023/01/02 08:11:13;;;;;;;8.00;3.80;;;;;;;16.57;62.26;99947.81;5073345;28;20024;-80
2023/01/02 08:13:40;;;;;;;7.30;3.63;;;;;;;16.58;62.14;99949.53;5072003;28;20419;-79
2023/01/02 08:16:17;;;;;;;7.63;4.00;;;;;;;16.58;62.35;99954.81;5073363;28;20036;-82
2023/01/02 08:18:43;;;;;;;7.35;4.10;;;;;;;16.59;62.35;99955.66;5071447;28;20112;-84
2023/01/02 08:21:09;;;;;;;7.90;3.80;;;;;;;16.58;62.14;99954.81;5071818;28;20032;-84
2023/01/02 08:23:35;;;;;;;7.05;4.15;;;;;;;16.58;62.19;99970.63;5073307;28;20043;-85
2023/01/02 08:26:03;;;;;;;6.85;3.88;;;;;;;16.61;62.39;99974.94;5073093;28;20028;-83
2023/01/02 08:28:28;;;;;;;7.47;4.10;;;;;;;16.61;62.37;99991.59;5073167;28;20021;-84
2023/01/02 08:30:54;;;;;;;8.88;5.03;;;;;;;16.59;62.12;99997.81;5072848;28;20089;-84
2023/01/02 08:33:19;;;;;;;6.10;3.85;;;;;;;16.59;62.10;100008.34;5073183;28;20107;-82
2023/01/02 08:35:45;;;;;;;8.32;4.20;;;;;;;16.58;62.12;100018.06;5073167;28;20040;-83
2023/01/02 08:38:10;;;;;;;8.02;4.13;;;;;;;16.59;62.57;100030.31;5071349;28;20181;-82
2023/01/02 08:40:36;;;;;;;6.88;3.83;;;;;;;16.58;62.29;100041.75;5072985;28;20044;-85
2023/01/02 08:43:01;;;;;;;7.18;4.28;;;;;;;16.59;62.51;100055.78;5071922;28;20024;-81
2023/01/02 08:45:27;;;;;;;6.63;3.80;;;;;;;16.60;62.19;100068.91;5071394;28;20025;-82
2023/01/02 08:47:52;;;;;;;8.18;4.35;;;;;;;16.59;62.24;100083.00;5072774;28;20029;-82
2023/01/02 08:50:18;;;;;;;6.38;3.72;;;;;;;16.61;62.33;100089.06;5072856;28;20025;-84
2023/01/02 08:52:43;;;;;;;7.82;3.92;;;;;;;16.61;62.33;100093.50;5071453;28;20052;-81
2023/01/02 08:55:09;;;;;;;5.90;3.53;;;;;;;16.60;62.32;100112.84;5073051;28;20039;-83
2023/01/02 08:57:34;;;;;;;8.80;4.05;;;;;;;16.61;62.16;100106.69;5071504;28;20032;-85
2023/01/02 08:59:59;;;;;;;6.80;3.72;;;;;;;16.60;62.28;100104.94;5071487;28;20035;-85
2023/01/02 09:02:25;;;;;;;7.65;3.97;;;;;;;16.62;62.16;100108.41;5072361;28;20036;-81
2023/01/02 09:04:50;;;;;;;7.88;4.22;;;;;;;16.61;62.52;100118.06;5072694;28;20075;-81
2023/01/02 09:07:16;;;;;;;7.20;4.35;;;;;;;16.62;62.33;100129.47;5072943;28;20041;-83
2023/01/02 09:09:41;;;;;;;6.78;4.10;;;;;;;16.63;62.33;100145.25;5072563;28;20033;-82
2023/01/02 09:12:07;;;;;;;9.02;5.28;;;;;;;16.62;62.02;100145.28;5072370;28;20032;-82
2023/01/02 09:14:33;;;;;;;7.18;4.22;;;;;;;16.61;62.07;100149.69;5070904;28;20028;-85
2023/01/02 09:16:59;;;;;;;7.18;4.03;;;;;;;16.62;62.23;100151.41;5072497;28;20051;-85
2023/01/02 09:19:25;;;;;;;7.78;4.22;;;;;;;16.62;62.25;100146.13;5072345;28;20024;-82
2023/01/02 09:21:51;;;;;;;7.78;4.32;;;;;;;16.62;62.25;100153.19;5071013;28;20029;-83
2023/01/02 09:24:17;;;;;;;7.55;4.15;;;;;;;16.64;62.14;100154.00;5072330;28;20029;-82
2023/01/02 09:26:43;;;;;;;6.90;3.42;;;;;;;16.62;62.36;100156.66;5071211;28;20043;-83
2023/01/02 09:29:10;;;;;;;5.95;4.03;;;;;;;16.63;62.27;100165.44;5073063;28;20043;-84
2023/01/02 09:31:36;;;;;;;8.90;4.00;;;;;;;16.64;61.99;100181.22;5076382;28;20478;-84
2023/01/02 09:34:02;;;;;;;6.53;4.25;;;;;;;16.63;62.35;100176.88;5076238;28;20035;-85
2023/01/02 09:36:27;;;;;;;8.15;4.30;;;;;;;16.63;62.33;100176.88;5075262;28;20074;-85
2023/01/02 09:38:54;;;;;;;8.20;4.78;;;;;;;16.63;62.22;100190.03;5076582;28;20078;-84
2023/01/02 09:41:20;;;;;;;6.88;3.95;;;;;;;16.64;62.34;100202.28;5076180;28;20024;-82
2023/01/02 09:43:51;;;;;;;7.32;3.63;;;;;;;16.63;62.64;100226.94;5074863;28;20029;-83
2023/01/02 09:46:44;;;;;;;7.78;4.03;;;;;;;16.63;62.33;100224.28;5076271;28;20025;-84
2023/01/02 09:49:20;;;;;;;6.97;4.20;;;;;;;16.61;62.07;100218.19;5075977;28;20029;-84
2023/01/02 09:51:46;;;;;;;7.25;4.15;;;;;;;16.61;62.32;100223.47;5076050;28;20017;-84
2023/01/02 09:54:30;;;;;;;7.25;3.92;;;;;;;16.63;62.10;100232.19;5076404;28;20024;-83
2023/01/02 09:57:08;;;;;;;7.25;4.03;;;;;;;16.66;62.22;100243.53;5076080;28;20021;-86
2023/01/02 09:59:46;;;;;;;7.25;3.70;;;;;;;16.64;62.38;100248.84;5075698;28;20024;-82
2023/01/02 10:02:46;;;;;;;7.68;4.60;;;;;;;16.63;62.33;100253.28;5075907;28;20028;-85
2023/01/02 10:05:36;;;;;;;7.18;4.00;;;;;;;16.66;62.29;100262.84;5033758;28;20489;-85
2023/01/02 10:08:10;;;;;;;7.80;3.95;;;;;;;16.64;62.12;100265.53;5033635;28;20088;-86
2023/01/02 10:10:42;;;;;;;8.75;4.05;;;;;;;16.66;62.15;100267.25;5033720;28;20111;-83
2023/01/02 10:13:16;;;;;;;8.82;4.43;;;;;;;16.64;62.14;100265.53;5033418;28;20029;-85
2023/01/02 10:15:45;;;;;;;8.50;4.32;;;;;;;16.65;62.28;100266.38;5033864;28;20051;-83
2023/01/02 10:18:21;;;;;;;9.45;4.63;;;;;;;16.63;62.52;100271.72;5033639;28;20041;-85
2023/01/02 10:20:51;;;;;;;;;;;;;;;16.64;62.38;100281.34;5050762;28;20061;-83
2023/01/02 10:23:24;;;;;;;10.30;4.55;;;;;;;16.64;62.16;100286.63;5016949;28;19935;-85
2023/01/02 10:26:04;;;;;;;10.07;4.90;;;;;;;16.66;62.47;100290.97;5033668;28;20423;-83
2023/01/02 10:28:50;;;;;;;11.27;5.35;;;;;;;16.64;62.19;100286.63;5033448;28;20064;-84
2023/01/02 10:31:35;;;;;;;10.52;5.10;;;;;;;16.67;62.28;100295.34;5033418;28;20029;-83
2023/01/02 10:34:02;;;;;;;12.18;5.88;;;;;;;16.67;62.28;100293.56;5033446;28;20033;-81
2023/01/02 10:36:33;;;;;;;10.88;6.03;;;;;;;16.68;62.41;100292.66;5033429;28;20124;-84
2023/01/02 10:39:06;;;;;;;10.20;5.28;;;;;;;16.67;62.46;100290.06;5033258;28;20034;-84
2023/01/02 10:41:32;;;;;;;10.27;5.13;;;;;;;16.67;62.38;100284.78;5034664;28;20044;-84
2023/01/02 10:44:04;;;;;;;10.80;4.90;;;;;;;16.69;62.42;100288.22;5073922;28;20119;-84
2023/01/02 10:46:35;;;;;;;10.15;4.95;;;;;;;16.66;62.42;100283.06;5075513;28;20016;-83
2023/01/02 10:49:02;;;;;;;9.80;5.13;;;;;;;16.68;62.31;100282.13;5073846;28;20020;-84
2023/01/02 10:51:29;;;;;;;9.35;4.82;;;;;;;16.66;62.30;100288.34;5075124;28;20028;-86
2023/01/02 10:54:06;;;;;;;7.38;4.88;;;;;;;16.68;62.13;100286.50;5075280;28;20029;-82
2023/01/02 10:56:34;;;;;;;13.45;5.40;;;;;;;16.68;62.10;100291.78;5074659;28;20107;-85
2023/01/02 10:59:01;;;;;;;10.63;4.90;;;;;;;16.67;62.47;100287.44;5073965;28;20508;-83
2023/01/02 11:01:26;;;;;;;11.30;5.53;;;;;;;16.68;62.39;100286.50;5074498;28;20478;-85
2023/01/02 11:03:56;;;;;;;9.73;4.47;;;;;;;16.69;62.35;100288.22;5075029;28;20032;-83
2023/01/02 11:06:25;;;;;;;12.32;5.20;;;;;;;16.66;62.13;100283.91;5074666;28;20486;-84
2023/01/02 11:08:57;;;;;;;12.20;5.25;;;;;;;16.67;62.11;100285.66;5074635;28;20033;-84
2023/01/02 11:11:24;;;;;;;9.85;5.10;;;;;;;16.67;62.21;100283.03;5074542;28;20415;-82
2023/01/02 11:13:53;;;;;;;11.30;5.20;;;;;;;16.68;62.45;100287.38;5073057;28;20036;-83
2023/01/02 11:16:19;;;;;;;9.40;4.93;;;;;;;16.71;62.21;100286.44;5074649;28;20055;-85
2023/01/02 11:19:00;;;;;;;9.55;4.78;;;;;;;16.69;62.06;100282.97;5074483;28;20489;-85
2023/01/02 11:21:32;;;;;;;10.18;4.80;;;;;;;16.69;62.08;100282.97;5074685;28;20028;-80
2023/01/02 11:24:03;;;;;;;8.38;4.50;;;;;;;16.69;62.32;100282.97;5073227;28;20032;-80
2023/01/02 11:26:31;;;;;;;10.70;4.82;;;;;;;16.68;62.16;100282.13;5074243;28;20107;-80
2023/01/02 11:29:07;;;;;;;9.35;4.65;;;;;;;16.70;62.29;100290.00;5073194;28;20024;-81
2023/01/02 11:31:33;;;;;;;8.05;3.78;;;;;;;16.69;62.05;100293.50;5074394;28;20020;-81
2023/01/02 11:34:16;;;;;;;8.95;4.88;;;;;;;16.68;62.38;100290.03;5074153;28;20059;-80
2023/01/02 11:36:43;;;;;;;7.20;3.88;;;;;;;16.68;62.35;100286.50;5074120;28;20024;-81
2023/01/02 11:39:21;;;;;;;8.18;4.22;;;;;;;16.73;61.99;100284.59;5072482;28;20028;-80
2023/01/02 11:44:54;;;;;;;7.15;3.97;;;;;;;16.70;62.31;100290.84;5074185;28;20039;-79